createdAt,value
2023-05-01T00:02:24.081Z,52.20
2023-05-01T00:04:50.942Z,52.20
2023-05-01T00:07:17.637Z,52.20
2023-05-01T00:09:44.289Z,52.10
2023-05-01T00:12:11.141Z,53.30
2023-05-01T00:14:37.832Z,52.30
2023-05-01T00:17:04.719Z,52.10
2023-05-01T00:19:31.361Z,52.20
2023-05-01T00:21:58.013Z,52.10
2023-05-01T00:24:24.684Z,52.10
2023-05-01T00:26:51.358Z,52.10
2023-05-01T00:29:18.054Z,52.20
2023-05-01T00:31:44.761Z,52.20
2023-05-01T00:34:11.618Z,52.10
2023-05-01T00:36:38.318Z,52.10
2023-05-01T00:39:04.970Z,52.20
2023-05-01T00:41:31.574Z,52.20
2023-05-01T00:43:58.250Z,52.20
2023-05-01T00:46:25.002Z,52.10
2023-05-01T00:48:51.715Z,52.10
2023-05-01T00:51:18.375Z,52.20
2023-05-01T00:53:45.251Z,52.20
2023-05-01T00:56:11.918Z,52.10
2023-05-01T00:58:38.559Z,52.00
2023-05-01T01:01:05.342Z,52.30
2023-05-01T01:03:32.233Z,52.20
2023-05-01T01:05:59.129Z,52.40
2023-05-01T01:08:25.793Z,52.50
2023-05-01T01:10:52.901Z,52.40
2023-05-01T01:13:19.537Z,52.60
2023-05-01T01:15:46.381Z,52.60
2023-05-01T01:18:13.276Z,52.70
2023-05-01T01:20:39.932Z,52.60
2023-05-01T01:23:06.605Z,52.50
2023-05-01T01:25:33.246Z,52.50
2023-05-01T01:27:59.906Z,52.70
2023-05-01T01:30:26.784Z,52.50
2023-05-01T01:32:53.593Z,52.60
2023-05-01T01:35:20.384Z,52.60
2023-05-01T01:37:47.250Z,52.70
2023-05-01T01:40:13.895Z,52.70
2023-05-01T01:42:40.552Z,52.70
2023-05-01T01:45:07.220Z,52.60
2023-05-01T01:47:33.918Z,52.60
2023-05-01T01:50:00.608Z,52.70
2023-05-01T01:52:27.268Z,52.60
2023-05-01T01:54:53.946Z,52.60
2023-05-01T01:57:20.827Z,52.60
2023-05-01T01:59:48.083Z,52.60
2023-05-01T02:02:14.766Z,52.70
2023-05-01T02:04:41.450Z,52.70
2023-05-01T02:07:08.089Z,52.60
2023-05-01T02:09:34.897Z,52.60
2023-05-01T02:12:01.760Z,52.60
2023-05-01T02:14:28.460Z,52.60
2023-05-01T02:16:55.133Z,52.60
2023-05-01T02:19:22.016Z,52.70
2023-05-01T02:21:48.697Z,52.60
2023-05-01T02:24:15.563Z,52.70
2023-05-01T02:26:42.218Z,52.60
2023-05-01T02:29:08.860Z,52.60
2023-05-01T02:31:35.559Z,52.70
2023-05-01T02:34:02.272Z,52.60
2023-05-01T02:36:29.158Z,52.70
2023-05-01T02:38:56.181Z,52.80
2023-05-01T02:41:22.826Z,52.80
2023-05-01T02:43:49.472Z,52.80
2023-05-01T02:46:16.379Z,52.70
2023-05-01T02:48:43.264Z,52.60
2023-05-01T02:51:09.912Z,52.70
2023-05-01T02:53:36.595Z,52.70
2023-05-01T02:56:03.247Z,52.60
2023-05-01T02:58:29.893Z,52.60
2023-05-01T03:00:56.597Z,52.70
2023-05-01T03:03:23.299Z,52.70
2023-05-01T03:05:50.204Z,52.70
2023-05-01T03:08:16.864Z,52.70
2023-05-01T03:10:43.506Z,52.70
2023-05-01T03:13:10.391Z,52.80
2023-05-01T03:15:37.035Z,52.80
2023-05-01T03:18:03.745Z,52.80
2023-05-01T03:20:30.652Z,52.60
2023-05-01T03:22:57.304Z,52.90
2023-05-01T03:25:23.957Z,52.80
2023-05-01T03:27:50.604Z,52.90
2023-05-01T03:30:17.264Z,52.80
2023-05-01T03:32:44.212Z,52.80
2023-05-01T03:35:11.009Z,52.80
2023-05-01T03:37:37.704Z,52.80
2023-05-01T03:40:04.363Z,52.80
2023-05-01T03:42:31.012Z,52.90
2023-05-01T03:44:57.671Z,52.90
2023-05-01T03:47:24.356Z,52.80
2023-05-01T03:49:51.256Z,52.90
2023-05-01T03:52:17.934Z,52.90
2023-05-01T03:54:44.806Z,52.90
2023-05-01T03:57:11.666Z,52.90
2023-05-01T03:59:38.325Z,53.00
2023-05-01T04:02:05.096Z,53.10
2023-05-01T04:04:31.950Z,53.10
2023-05-01T04:06:58.739Z,52.90
2023-05-01T04:09:25.614Z,52.80
2023-05-01T04:11:52.480Z,52.90
2023-05-01T04:14:19.360Z,52.80
2023-05-01T04:16:46.231Z,54.30
2023-05-01T04:19:13.119Z,53.40
2023-05-01T04:21:39.783Z,53.60
2023-05-01T04:24:06.647Z,53.70
2023-05-01T04:26:33.518Z,53.70
2023-05-01T04:29:00.175Z,53.50
2023-05-01T04:31:27.663Z,53.40
2023-05-01T04:33:54.370Z,53.60
2023-05-01T04:36:21.032Z,53.70
2023-05-01T04:38:47.717Z,53.70
2023-05-01T04:41:14.587Z,54.00
2023-05-01T04:43:41.498Z,54.00
2023-05-01T04:46:08.386Z,54.10
2023-05-01T04:48:35.253Z,53.80
2023-05-01T04:51:01.913Z,53.70
2023-05-01T04:53:29.609Z,53.80
2023-05-01T04:55:56.477Z,53.80
2023-05-01T04:58:23.336Z,53.80
2023-05-01T05:00:50.187Z,53.80
2023-05-01T05:03:16.914Z,53.80
2023-05-01T05:05:43.882Z,53.70
2023-05-01T05:08:10.533Z,53.80
2023-05-01T05:10:37.178Z,53.80
2023-05-01T05:13:03.828Z,53.80
2023-05-01T05:15:30.698Z,53.80
2023-05-01T05:17:57.586Z,53.80
2023-05-01T05:20:24.272Z,53.80
2023-05-01T05:22:50.933Z,53.80
2023-05-01T05:25:17.604Z,53.80
2023-05-01T05:27:44.265Z,53.70
2023-05-01T05:30:10.913Z,53.80
2023-05-01T05:32:37.572Z,53.70
2023-05-01T05:35:04.231Z,53.70
2023-05-01T05:37:30.876Z,53.70
2023-05-01T05:39:57.952Z,53.60
2023-05-01T05:42:24.714Z,53.70
2023-05-01T05:44:51.399Z,53.70
2023-05-01T05:47:18.039Z,54.60
2023-05-01T05:49:44.902Z,53.50
2023-05-01T05:52:11.577Z,53.60
2023-05-01T05:54:38.248Z,53.70
2023-05-01T05:57:04.890Z,53.60
2023-05-01T05:59:31.544Z,54.50
2023-05-01T06:01:58.238Z,53.40
2023-05-01T06:04:24.962Z,53.60
2023-05-01T06:06:51.697Z,53.60
2023-05-01T06:09:18.389Z,53.50
2023-05-01T06:11:45.039Z,53.60
2023-05-01T06:14:11.695Z,53.60
2023-05-01T06:16:38.460Z,53.50
2023-05-01T06:19:05.145Z,53.50
2023-05-01T06:21:32.012Z,53.40
2023-05-01T06:23:58.939Z,53.60
2023-05-01T06:26:25.591Z,53.60
2023-05-01T06:28:52.242Z,53.50
2023-05-01T06:31:18.906Z,53.60
2023-05-01T06:33:45.798Z,53.50
2023-05-01T06:36:12.449Z,54.70
2023-05-01T06:38:39.099Z,53.70
2023-05-01T06:41:05.747Z,54.00
2023-05-01T06:43:32.609Z,54.20
2023-05-01T06:45:59.489Z,54.10
2023-05-01T06:48:26.132Z,54.40
2023-05-01T06:50:52.779Z,55.70
2023-05-01T06:53:19.628Z,56.70
2023-05-01T06:55:46.279Z,56.30
2023-05-01T06:58:23.450Z,55.60
2023-05-01T07:00:50.944Z,55.10
2023-05-01T07:03:17.905Z,55.20
2023-05-01T07:05:44.643Z,55.10
2023-05-01T07:08:11.530Z,55.30
2023-05-01T07:10:39.899Z,55.30
2023-05-01T07:13:08.701Z,55.50
2023-05-01T07:15:35.367Z,55.60
2023-05-01T07:18:02.086Z,55.70
2023-05-01T07:20:29.001Z,55.70
2023-05-01T07:22:56.062Z,55.60
2023-05-01T07:25:22.733Z,55.80
2023-05-01T07:27:49.398Z,55.60
2023-05-01T07:30:16.041Z,55.50
2023-05-01T07:32:42.706Z,55.50
2023-05-01T07:35:09.352Z,55.60
2023-05-01T07:37:36.221Z,55.60
2023-05-01T07:40:03.129Z,55.40
2023-05-01T07:42:29.773Z,55.60
2023-05-01T07:44:56.626Z,55.50
2023-05-01T07:47:23.295Z,55.30
2023-05-01T07:49:49.977Z,55.40
2023-05-01T07:52:16.620Z,55.60
2023-05-01T07:54:43.494Z,55.60
2023-05-01T07:57:10.372Z,55.40
2023-05-01T07:59:37.027Z,55.40
2023-05-01T08:02:03.711Z,55.50
2023-05-01T08:04:30.438Z,55.20
2023-05-01T08:06:57.301Z,55.20
2023-05-01T08:09:24.031Z,55.40
2023-05-01T08:11:50.673Z,55.20
2023-05-01T08:14:17.332Z,55.10
2023-05-01T08:16:44.026Z,55.00
2023-05-01T08:19:10.694Z,54.80
2023-05-01T08:21:37.345Z,54.70
2023-05-01T08:24:04.060Z,54.70
2023-05-01T08:26:30.731Z,54.60
2023-05-01T08:28:57.373Z,54.70
2023-05-01T08:31:24.035Z,54.60
2023-05-01T08:33:50.840Z,54.60
2023-05-01T08:36:18.068Z,54.50
2023-05-01T08:38:46.048Z,54.50
2023-05-01T08:41:12.697Z,54.50
2023-05-01T08:43:39.346Z,54.50
2023-05-01T08:46:05.996Z,54.50
2023-05-01T08:48:32.662Z,54.70
2023-05-01T08:50:59.312Z,54.50
2023-05-01T08:53:26.184Z,54.70
2023-05-01T08:55:52.845Z,54.70
2023-05-01T08:58:19.504Z,54.60
2023-05-01T09:00:46.387Z,54.50
2023-05-01T09:03:13.154Z,54.50
2023-05-01T09:05:39.921Z,54.50
2023-05-01T09:08:06.581Z,54.50
2023-05-01T09:10:33.460Z,55.00
2023-05-01T09:13:00.330Z,54.60
2023-05-01T09:15:27.014Z,54.70
2023-05-01T09:17:53.827Z,55.00
2023-05-01T09:20:20.553Z,54.80
2023-05-01T09:22:47.248Z,55.00
2023-05-01T09:25:13.928Z,55.00
2023-05-01T09:27:40.619Z,55.10
2023-05-01T09:30:07.270Z,55.20
2023-05-01T09:32:33.979Z,55.10
2023-05-01T09:35:00.653Z,54.90
2023-05-01T09:37:27.310Z,55.10
2023-05-01T09:39:53.989Z,55.10
2023-05-01T09:42:20.633Z,55.10
2023-05-01T09:44:47.285Z,55.00
2023-05-01T09:47:14.331Z,55.00
2023-05-01T09:49:40.966Z,54.90
2023-05-01T09:52:07.616Z,54.80
2023-05-01T09:54:34.273Z,54.70
2023-05-01T09:57:00.927Z,54.70
2023-05-01T09:59:27.573Z,54.60
2023-05-01T10:01:54.283Z,54.60
2023-05-01T10:04:20.982Z,54.60
2023-05-01T10:06:47.933Z,54.50
2023-05-01T10:09:14.590Z,54.50
2023-05-01T10:11:41.223Z,54.50
2023-05-01T10:14:07.893Z,54.40
2023-05-01T10:16:34.599Z,54.40
2023-05-01T10:19:02.399Z,54.40
2023-05-01T10:21:30.810Z,54.40
2023-05-01T10:23:57.470Z,54.30
2023-05-01T10:26:24.130Z,54.30
2023-05-01T10:28:50.787Z,54.30
2023-05-01T10:31:17.533Z,54.30
2023-05-01T10:33:44.230Z,54.30
2023-05-01T10:36:10.874Z,54.30
2023-05-01T10:38:37.520Z,54.30
2023-05-01T10:41:04.374Z,54.30
2023-05-01T10:43:31.067Z,54.20
2023-05-01T10:45:57.771Z,54.20
2023-05-01T10:48:24.445Z,54.20
2023-05-01T10:50:51.312Z,54.10
2023-05-01T10:53:18.006Z,54.10
2023-05-01T10:55:44.792Z,54.10
2023-05-01T10:58:11.749Z,54.00
2023-05-01T11:00:38.386Z,54.00
2023-05-01T11:03:05.038Z,54.00
2023-05-01T11:05:38.232Z,53.90
2023-05-01T11:08:05.399Z,53.90
2023-05-01T11:10:32.051Z,53.80
2023-05-01T11:12:58.698Z,53.90
2023-05-01T11:15:25.368Z,53.70
2023-05-01T11:17:52.063Z,53.70
2023-05-01T11:20:18.987Z,53.70
2023-05-01T11:22:45.648Z,53.50
2023-05-01T11:25:12.300Z,53.60
2023-05-01T11:27:38.984Z,53.60
2023-05-01T11:30:05.633Z,53.50
2023-05-01T11:32:32.337Z,53.50
2023-05-01T11:34:59.437Z,53.60
2023-05-01T11:37:26.304Z,53.50
2023-05-01T11:39:52.955Z,53.60
2023-05-01T11:42:19.858Z,53.50
2023-05-01T11:44:46.548Z,53.40
2023-05-01T11:47:13.213Z,53.30
2023-05-01T11:49:40.118Z,53.40
2023-05-01T11:52:06.766Z,53.20
2023-05-01T11:54:33.425Z,53.20
2023-05-01T11:57:00.101Z,53.20
2023-05-01T11:59:26.778Z,53.30
2023-05-01T12:01:53.490Z,53.30
2023-05-01T12:04:20.278Z,53.30
2023-05-01T12:06:47.028Z,53.30
2023-05-01T12:09:13.740Z,53.30
2023-05-01T12:11:40.393Z,53.20
2023-05-01T12:14:07.058Z,53.20
2023-05-01T12:16:33.957Z,53.20
2023-05-01T12:19:00.651Z,53.20
2023-05-01T12:21:27.301Z,53.20
2023-05-01T12:23:54.221Z,53.20
2023-05-01T12:26:20.866Z,53.10
2023-05-01T12:28:47.519Z,53.10
2023-05-01T12:31:14.168Z,53.10
2023-05-01T12:33:40.830Z,53.10
2023-05-01T12:36:07.695Z,53.10
2023-05-01T12:38:34.364Z,53.00
2023-05-01T12:41:01.235Z,53.00
2023-05-01T12:43:27.887Z,53.00
2023-05-01T12:45:54.674Z,53.10
2023-05-01T12:48:22.078Z,53.00
2023-05-01T12:50:49.874Z,53.10
2023-05-01T12:53:17.748Z,53.10
2023-05-01T12:55:44.413Z,52.90
2023-05-01T12:58:11.061Z,53.00
2023-05-01T13:00:37.721Z,53.00
2023-05-01T13:03:04.472Z,53.00
2023-05-01T13:05:31.204Z,52.90
2023-05-01T13:07:57.859Z,53.00
2023-05-01T13:10:24.503Z,52.70
2023-05-01T13:12:51.150Z,52.70
2023-05-01T13:15:18.024Z,52.90
2023-05-01T13:17:44.944Z,52.90
2023-05-01T13:20:11.624Z,52.80
2023-05-01T13:22:38.539Z,52.80
2023-05-01T13:25:05.196Z,52.90
2023-05-01T13:27:31.866Z,52.90
2023-05-01T13:29:58.955Z,52.70
2023-05-01T13:32:25.922Z,52.80
2023-05-01T13:34:52.605Z,52.70
2023-05-01T13:37:19.265Z,52.80
2023-05-01T13:39:45.912Z,52.60
2023-05-01T13:42:12.561Z,52.70
2023-05-01T13:44:39.216Z,52.80
2023-05-01T13:47:05.863Z,52.80
2023-05-01T13:49:32.522Z,52.80
2023-05-01T13:51:59.167Z,52.90
2023-05-01T13:54:26.039Z,52.90
2023-05-01T13:56:52.698Z,52.90
2023-05-01T13:59:19.397Z,52.90
2023-05-01T14:01:46.257Z,53.00
2023-05-01T14:04:13.303Z,52.90
2023-05-01T14:06:40.018Z,52.90
2023-05-01T14:09:06.723Z,53.00
2023-05-01T14:11:33.371Z,53.00
2023-05-01T14:14:00.260Z,53.00
2023-05-01T14:16:27.083Z,53.00
2023-05-01T14:18:53.863Z,53.00
2023-05-01T14:21:20.518Z,53.00
2023-05-01T14:23:47.171Z,53.00
2023-05-01T14:26:13.815Z,53.00
2023-05-01T14:28:40.495Z,53.00
2023-05-01T14:31:07.188Z,52.90
2023-05-01T14:33:33.855Z,52.90
2023-05-01T14:36:00.499Z,52.90
2023-05-01T14:38:27.369Z,52.90
2023-05-01T14:40:54.026Z,53.00
2023-05-01T14:43:20.891Z,52.90
2023-05-01T14:45:47.583Z,52.90
2023-05-01T14:48:14.256Z,52.90
2023-05-01T14:50:40.899Z,52.80
2023-05-01T14:53:07.549Z,52.90
2023-05-01T14:55:34.203Z,52.80
2023-05-01T14:58:00.882Z,52.80
2023-05-01T15:00:27.518Z,52.60
2023-05-01T15:02:54.206Z,52.50
2023-05-01T15:05:20.938Z,52.50
2023-05-01T15:07:47.596Z,53.50
2023-05-01T15:10:14.279Z,52.60
2023-05-01T15:12:40.968Z,52.50
2023-05-01T15:15:07.897Z,52.50
2023-05-01T15:17:34.569Z,52.50
2023-05-01T15:20:01.317Z,52.40
2023-05-01T15:22:28.024Z,52.40
2023-05-01T15:24:54.879Z,52.30
2023-05-01T15:27:21.532Z,52.20
2023-05-01T15:29:48.185Z,52.20
2023-05-01T15:32:14.887Z,52.20
2023-05-01T15:34:41.543Z,52.10
2023-05-01T15:37:08.228Z,52.30
2023-05-01T15:39:34.884Z,52.30
2023-05-01T15:42:01.535Z,52.40
2023-05-01T15:44:28.191Z,52.50
2023-05-01T15:46:54.902Z,52.50
2023-05-01T15:49:21.625Z,52.50
2023-05-01T15:51:48.271Z,52.50
2023-05-01T15:54:15.829Z,52.50
2023-05-01T15:56:42.499Z,52.50
2023-05-01T15:59:09.353Z,52.60
2023-05-01T16:01:36.065Z,52.70
2023-05-01T16:04:02.838Z,52.60
2023-05-01T16:06:29.799Z,52.70
2023-05-01T16:08:56.473Z,52.70
2023-05-01T16:11:23.128Z,52.70
2023-05-01T16:13:49.776Z,52.70
2023-05-01T16:16:16.468Z,52.70
2023-05-01T16:18:43.146Z,52.80
2023-05-01T16:21:09.814Z,52.80
2023-05-01T16:23:36.753Z,52.80
2023-05-01T16:26:03.408Z,52.80
2023-05-01T16:28:30.068Z,52.80
2023-05-01T16:30:56.971Z,52.90
2023-05-01T16:33:23.651Z,52.90
2023-05-01T16:35:50.297Z,53.00
2023-05-01T16:38:17.167Z,52.90
2023-05-01T16:40:43.828Z,52.90
2023-05-01T16:43:10.466Z,53.00
2023-05-01T16:45:37.115Z,52.90
2023-05-01T16:48:03.777Z,52.90
2023-05-01T16:50:30.436Z,52.90
2023-05-01T16:52:57.087Z,53.00
2023-05-01T16:55:23.730Z,53.00
2023-05-01T16:57:50.396Z,53.00
2023-05-01T17:00:17.055Z,53.00
2023-05-01T17:02:43.943Z,53.00
2023-05-01T17:05:10.596Z,53.00
2023-05-01T17:07:37.239Z,53.00
2023-05-01T17:10:04.088Z,53.00
2023-05-01T17:12:30.793Z,53.00
2023-05-01T17:14:57.693Z,53.00
2023-05-01T17:17:24.331Z,53.00
2023-05-01T17:19:51.013Z,53.00
2023-05-01T17:22:17.652Z,53.00
2023-05-01T17:24:44.304Z,53.00
2023-05-01T17:27:10.956Z,53.00
2023-05-01T17:29:37.837Z,53.00
2023-05-01T17:32:04.576Z,53.00
2023-05-01T17:34:31.276Z,53.00
2023-05-01T17:36:58.119Z,53.00
2023-05-01T17:39:24.885Z,53.00
2023-05-01T17:41:51.758Z,53.00
2023-05-01T17:44:18.634Z,53.00
2023-05-01T17:46:45.286Z,53.00
2023-05-01T17:49:11.943Z,53.00
2023-05-01T17:51:38.605Z,53.00
2023-05-01T17:54:05.434Z,53.00
2023-05-01T17:56:32.124Z,53.00
2023-05-01T17:58:58.774Z,53.00
2023-05-01T18:01:25.437Z,53.00
2023-05-01T18:03:52.271Z,53.00
2023-05-01T18:06:19.123Z,53.10
2023-05-01T18:08:46.026Z,53.10
2023-05-01T18:11:12.666Z,53.10
2023-05-01T18:13:39.331Z,53.10
2023-05-01T18:16:06.017Z,53.10
2023-05-01T18:18:32.691Z,53.10
2023-05-01T18:20:59.328Z,53.10
2023-05-01T18:23:25.983Z,53.10
2023-05-01T18:25:52.648Z,53.10
2023-05-01T18:28:19.333Z,53.10
2023-05-01T18:30:46.030Z,53.10
2023-05-01T18:33:12.774Z,53.00
2023-05-01T18:35:39.480Z,53.00
2023-05-01T18:38:06.135Z,53.10
2023-05-01T18:40:32.792Z,53.10
2023-05-01T18:42:59.430Z,53.20
2023-05-01T18:45:26.075Z,53.20
2023-05-01T18:47:52.786Z,53.10
2023-05-01T18:50:19.491Z,53.10
2023-05-01T18:52:46.095Z,53.10
2023-05-01T18:55:12.746Z,53.20
2023-05-01T18:57:39.426Z,53.10
2023-05-01T19:00:06.072Z,53.20
2023-05-01T19:02:32.776Z,53.20
2023-05-01T19:04:59.563Z,53.20
2023-05-01T19:07:26.429Z,53.20
2023-05-01T19:09:53.305Z,53.20
2023-05-01T19:12:19.951Z,53.30
2023-05-01T19:14:46.604Z,53.20
2023-05-01T19:17:13.264Z,53.20
2023-05-01T19:19:39.935Z,53.20
2023-05-01T19:22:06.809Z,53.30
2023-05-01T19:24:33.455Z,53.20
2023-05-01T19:27:00.133Z,53.30
2023-05-01T19:29:26.783Z,53.20
2023-05-01T19:31:53.430Z,53.30
2023-05-01T19:34:20.322Z,53.30
2023-05-01T19:36:46.959Z,53.20
2023-05-01T19:39:13.600Z,53.20
2023-05-01T19:41:40.241Z,53.30
2023-05-01T19:44:07.391Z,53.20
2023-05-01T19:46:34.049Z,53.30
2023-05-01T19:49:00.686Z,53.30
2023-05-01T19:51:27.327Z,53.20
2023-05-01T19:53:53.975Z,53.20
2023-05-01T19:56:20.613Z,53.20
2023-05-01T19:58:47.257Z,53.30
2023-05-01T20:01:14.007Z,53.30
2023-05-01T20:03:40.956Z,53.20
2023-05-01T20:06:07.705Z,53.20
2023-05-01T20:08:34.628Z,53.20
2023-05-01T20:11:01.315Z,53.20
2023-05-01T20:13:27.993Z,53.30
2023-05-01T20:15:54.659Z,53.20
2023-05-01T20:18:21.325Z,53.20
2023-05-01T20:20:48.000Z,53.30
2023-05-01T20:23:14.674Z,53.20
2023-05-01T20:25:41.336Z,53.20
2023-05-01T20:28:08.163Z,53.30
2023-05-01T20:30:34.819Z,53.30
2023-05-01T20:33:01.543Z,53.30
2023-05-01T20:35:28.219Z,53.20
2023-05-01T20:37:54.870Z,53.30
2023-05-01T20:40:21.506Z,53.30
2023-05-01T20:42:48.393Z,53.20
2023-05-01T20:45:15.077Z,53.20
2023-05-01T20:47:41.732Z,53.30
2023-05-01T20:50:08.398Z,53.20
2023-05-01T20:52:35.042Z,53.30
2023-05-01T20:55:01.682Z,53.30
2023-05-01T20:57:28.343Z,53.30
2023-05-01T20:59:55.033Z,53.30
2023-05-01T21:02:21.681Z,53.20
2023-05-01T21:04:48.389Z,53.20
2023-05-01T21:07:15.034Z,53.30
2023-05-01T21:09:41.670Z,53.20
2023-05-01T21:12:08.536Z,53.20
2023-05-01T21:14:35.205Z,53.30
2023-05-01T21:17:01.846Z,53.40
2023-05-01T21:19:28.506Z,53.30
2023-05-01T21:21:55.368Z,53.30
2023-05-01T21:24:22.050Z,53.30
2023-05-01T21:26:48.915Z,53.30
2023-05-01T21:29:15.570Z,53.30
2023-05-01T21:31:42.262Z,53.30
2023-05-01T21:34:09.144Z,53.30
2023-05-01T21:36:35.808Z,53.30
2023-05-01T21:39:02.682Z,53.30
2023-05-01T21:41:29.540Z,53.30
2023-05-01T21:43:56.190Z,53.30
2023-05-01T21:46:22.879Z,53.40
2023-05-01T21:48:49.561Z,53.30
2023-05-01T21:51:16.211Z,53.30
2023-05-01T21:53:43.078Z,53.30
2023-05-01T21:56:09.935Z,53.30
2023-05-01T21:58:36.576Z,53.20
2023-05-01T22:01:03.237Z,53.30
2023-05-01T22:03:30.152Z,53.30
2023-05-01T22:05:57.164Z,53.30
2023-05-01T22:08:23.807Z,53.30
2023-05-01T22:10:50.451Z,53.30
2023-05-01T22:13:17.110Z,53.30
2023-05-01T22:15:43.782Z,53.30
2023-05-01T22:18:10.495Z,53.30
2023-05-01T22:20:37.195Z,53.30
2023-05-01T22:23:03.835Z,53.30
2023-05-01T22:25:30.473Z,53.30
2023-05-01T22:27:57.130Z,53.30
2023-05-01T22:30:23.789Z,53.30
2023-05-01T22:32:50.801Z,53.30
2023-05-01T22:35:17.535Z,53.30
2023-05-01T22:37:44.207Z,53.30
2023-05-01T22:40:10.869Z,53.20
2023-05-01T22:42:37.603Z,53.20
2023-05-01T22:45:04.248Z,53.20
2023-05-01T22:47:31.125Z,53.20
2023-05-01T22:49:58.158Z,53.20
2023-05-01T22:52:25.231Z,53.20
2023-05-01T22:54:51.880Z,53.30
2023-05-01T22:57:18.530Z,53.30
2023-05-01T22:59:45.210Z,53.20
2023-05-01T23:02:12.100Z,53.20
2023-05-01T23:04:38.808Z,53.20
2023-05-01T23:07:05.529Z,53.20
2023-05-01T23:09:32.241Z,53.20
2023-05-01T23:11:58.932Z,53.20
2023-05-01T23:14:25.588Z,53.20
2023-05-01T23:16:52.234Z,53.20
2023-05-01T23:19:18.925Z,53.20
2023-05-01T23:21:45.599Z,53.20
2023-05-01T23:24:12.265Z,53.40
2023-05-01T23:26:38.913Z,53.20
2023-05-01T23:29:05.560Z,53.20
2023-05-01T23:31:32.226Z,53.20
2023-05-01T23:33:58.884Z,54.20
2023-05-01T23:36:25.534Z,53.20
2023-05-01T23:38:52.178Z,53.20
2023-05-01T23:41:18.813Z,53.20
2023-05-01T23:43:45.672Z,53.20
2023-05-01T23:46:12.387Z,53.20
2023-05-01T23:48:39.057Z,53.20
2023-05-01T23:51:05.920Z,53.10
2023-05-01T23:53:32.565Z,53.10
2023-05-01T23:55:59.222Z,53.10
2023-05-01T23:58:25.903Z,53.10
